Time,TemperatureF,DewpointF,PressureIn,WindDirection,WindDirectionDegrees,WindSpeedMPH,WindSpeedGustMPH,Humidity,HourlyPrecipIn,Conditions,Clouds,dailyrainin,SoftwareType,DateUTC
2013-09-09 00:04:00,68.2,60.0,29.72,SE,140,4.0,9.0,74,0.00,,,0.00,weatherlink.com 1.10,2013-09-09 05:04:00,
2013-09-09 00:19:00,68.2,60.0,29.71,East,98,3.0,10.0,75,0.00,,,0.00,weatherlink.com 1.10,2013-09-09 05:19:00,
2013-09-09 00:34:00,68.1,60.0,29.72,SSE,167,2.0,11.0,75,0.00,,,0.00,weatherlink.com 1.10,2013-09-09 05:34:00,
2013-09-09 00:49:00,67.6,60.0,29.72,SSW,199,1.0,4.0,76,0.00,,,0.00,weatherlink.com 1.10,2013-09-09 05:49:00,
2013-09-09 01:04:00,67.7,60.0,29.71,ESE,110,4.0,10.0,76,0.00,,,0.00,weatherlink.com 1.10,2013-09-09 06:04:00,
2013-09-09 01:19:00,66.7,60.0,29.71,WSW,246,1.0,5.0,79,0.00,,,0.00,weatherlink.com 1.10,2013-09-09 06:19:00,
2013-09-09 01:34:00,66.5,60.0,29.71,WSW,256,0.0,2.0,80,0.00,,,0.00,weatherlink.com 1.10,2013-09-09 06:34:00,
2013-09-09 01:49:00,67.0,60.0,29.71,SE,127,4.0,8.0,79,0.00,,,0.00,weatherlink.com 1.10,2013-09-09 06:49:00,
2013-09-09 02:04:00,67.2,61.0,29.70,ESE,122,8.0,13.0,79,0.00,,,0.00,weatherlink.com 1.10,2013-09-09 07:04:00,
2013-09-09 02:19:00,67.2,60.0,29.70,East,99,2.0,10.0,78,0.00,,,0.00,weatherlink.com 1.10,2013-09-09 07:19:00,
2013-09-09 02:34:00,67.3,60.0,29.70,ESE,120,2.0,8.0,77,0.00,,,0.00,weatherlink.com 1.10,2013-09-09 07:34:00,
2013-09-09 02:49:00,67.6,60.0,29.70,NE,53,0.0,6.0,76,0.00,,,0.00,weatherlink.com 1.10,2013-09-09 07:49:00,
2013-09-09 03:04:00,66.3,59.0,29.70,NW,315,0.0,1.0,78,0.00,,,0.00,weatherlink.com 1.10,2013-09-09 08:04:00,
2013-09-09 03:19:00,66.0,60.0,29.70,ENE,76,2.0,3.0,80,0.00,,,0.00,weatherlink.com 1.10,2013-09-09 08:19:00,
2013-09-09 03:34:00,66.3,60.0,29.70,ESE,107,0.0,7.0,79,0.00,,,0.00,weatherlink.com 1.10,2013-09-09 08:34:00,
2013-09-09 03:49:00,65.8,60.0,29.70,ESE,103,4.0,5.0,81,0.00,,,0.00,weatherlink.com 1.10,2013-09-09 08:49:00,
2013-09-09 04:04:00,65.9,60.0,29.70,ESE,119,2.0,10.0,81,0.00,,,0.00,weatherlink.com 1.10,2013-09-09 09:04:00,
2013-09-09 04:19:00,65.7,60.0,29.70,ESE,119,3.0,9.0,81,0.00,,,0.00,weatherlink.com 1.10,2013-09-09 09:19:00,
2013-09-09 04:34:00,66.0,60.0,29.71,ESE,121,5.0,10.0,81,0.00,,,0.00,weatherlink.com 1.10,2013-09-09 09:34:00,
2013-09-09 04:49:00,65.7,60.0,29.70,ESE,107,4.0,10.0,83,0.00,,,0.00,weatherlink.com 1.10,2013-09-09 09:49:00,
2013-09-09 05:04:00,65.3,60.0,29.71,ESE,105,3.0,7.0,84,0.00,,,0.00,weatherlink.com 1.10,2013-09-09 10:04:00,
2013-09-09 05:19:00,65.0,60.0,29.70,East,101,2.0,7.0,84,0.00,,,0.00,weatherlink.com 1.10,2013-09-09 10:19:00,
2013-09-09 05:34:00,64.8,60.0,29.70,ESE,112,0.0,4.0,85,0.00,,,0.00,weatherlink.com 1.10,2013-09-09 10:34:00,
2013-09-09 05:49:00,64.4,60.0,29.70,ESE,116,3.0,7.0,86,0.00,,,0.00,weatherlink.com 1.10,2013-09-09 10:49:00,
2013-09-09 06:04:00,64.5,60.0,29.71,ESE,104,2.0,10.0,85,0.00,,,0.00,weatherlink.com 1.10,2013-09-09 11:04:00,
2013-09-09 06:19:00,64.5,60.0,29.71,ESE,104,3.0,8.0,86,0.00,,,0.00,weatherlink.com 1.10,2013-09-09 11:19:00,
2013-09-09 06:34:00,64.3,60.0,29.71,SE,131,0.0,4.0,86,0.00,,,0.00,weatherlink.com 1.10,2013-09-09 11:34:00,
2013-09-09 06:49:00,63.0,59.0,29.71,SE,131,0.0,0.0,87,0.00,,,0.00,weatherlink.com 1.10,2013-09-09 11:49:00,
2013-09-09 07:04:00,63.2,60.0,29.71,SE,131,0.0,0.0,88,0.00,,,0.00,weatherlink.com 1.10,2013-09-09 12:04:00,
2013-09-09 07:19:00,63.0,59.0,29.71,SE,131,0.0,1.0,88,0.00,,,0.00,weatherlink.com 1.10,2013-09-09 12:19:00,
2013-09-09 07:35:00,62.9,59.0,29.72,SE,132,0.0,1.0,88,0.00,,,0.00,weatherlink.com 1.10,2013-09-09 12:35:00,
2013-09-09 07:50:00,63.5,60.0,29.72,ESE,105,1.0,3.0,88,0.00,,,0.00,weatherlink.com 1.10,2013-09-09 12:50:00,
2013-09-09 08:05:00,64.0,60.0,29.73,SSE,150,0.0,3.0,87,0.00,,,0.00,weatherlink.com 1.10,2013-09-09 13:05:00,
2013-09-09 08:20:00,64.6,60.0,29.73,SE,134,0.0,2.0,86,0.00,,,0.00,weatherlink.com 1.10,2013-09-09 13:20:00,
2013-09-09 08:35:00,64.9,60.0,29.73,ESE,112,7.0,7.0,85,0.00,,,0.00,weatherlink.com 1.10,2013-09-09 13:35:00,
2013-09-09 08:50:00,65.5,60.0,29.73,East,93,6.0,9.0,83,0.00,,,0.00,weatherlink.com 1.10,2013-09-09 13:50:00,
2013-09-09 09:05:00,66.9,61.0,29.74,SE,127,3.0,10.0,81,0.00,,,0.00,weatherlink.com 1.10,2013-09-09 14:05:00,
2013-09-09 09:20:00,68.1,61.0,29.75,ESE,102,4.0,9.0,78,0.00,,,0.00,weatherlink.com 1.10,2013-09-09 14:20:00,
2013-09-09 09:35:00,69.3,61.0,29.75,SE,136,6.0,8.0,76,0.00,,,0.00,weatherlink.com 1.10,2013-09-09 14:35:00,
2013-09-09 09:50:00,69.2,61.0,29.75,East,99,5.0,7.0,75,0.00,,,0.00,weatherlink.com 1.10,2013-09-09 14:50:00,
2013-09-09 10:05:00,70.4,61.0,29.75,ESE,112,7.0,8.0,73,0.00,,,0.00,weatherlink.com 1.10,2013-09-09 15:05:00,
2013-09-09 10:20:00,71.7,61.0,29.75,SE,142,6.0,9.0,70,0.00,,,0.00,weatherlink.com 1.10,2013-09-09 15:20:00,
2013-09-09 10:35:00,72.9,62.0,29.76,SE,128,4.0,9.0,68,0.00,,,0.00,weatherlink.com 1.10,2013-09-09 15:35:00,
2013-09-09 10:50:00,72.8,61.0,29.76,SE,124,4.0,9.0,67,0.00,,,0.00,weatherlink.com 1.10,2013-09-09 15:50:00,
2013-09-09 11:05:00,73.9,61.0,29.76,ENE,63,5.0,11.0,64,0.00,,,0.00,weatherlink.com 1.10,2013-09-09 16:05:00,
2013-09-09 11:20:00,74.7,61.0,29.76,SE,143,10.0,12.0,62,0.00,,,0.00,weatherlink.com 1.10,2013-09-09 16:20:00,
2013-09-09 11:35:00,76.0,61.0,29.76,SE,144,11.0,12.0,60,0.00,,,0.00,weatherlink.com 1.10,2013-09-09 16:35:00,
2013-09-09 11:50:00,75.0,61.0,29.76,ESE,107,10.0,12.0,61,0.00,,,0.00,weatherlink.com 1.10,2013-09-09 16:50:00,
2013-09-09 12:05:00,76.3,60.0,29.76,East,94,3.0,11.0,58,0.00,,,0.00,weatherlink.com 1.10,2013-09-09 17:05:00,
2013-09-09 12:20:00,77.5,61.0,29.75,ESE,105,12.0,13.0,57,0.00,,,0.00,weatherlink.com 1.10,2013-09-09 17:20:00,
2013-09-09 12:35:00,77.4,60.0,29.75,SE,134,10.0,14.0,55,0.00,,,0.00,weatherlink.com 1.10,2013-09-09 17:35:00,
2013-09-09 12:50:00,77.1,60.0,29.75,ESE,121,4.0,12.0,55,0.00,,,0.00,weatherlink.com 1.10,2013-09-09 17:50:00,
2013-09-09 13:05:00,79.0,61.0,29.74,ENE,62,8.0,13.0,54,0.00,,,0.00,weatherlink.com 1.10,2013-09-09 18:05:00,
2013-09-09 13:20:00,77.9,59.0,29.73,ESE,115,10.0,15.0,53,0.00,,,0.00,weatherlink.com 1.10,2013-09-09 18:20:00,
2013-09-09 13:35:00,81.0,59.0,29.73,East,100,8.0,17.0,48,0.00,,,0.00,weatherlink.com 1.10,2013-09-09 18:35:00,
2013-09-09 13:51:00,80.6,59.0,29.72,East,81,10.0,13.0,48,0.00,,,0.00,weatherlink.com 1.10,2013-09-09 18:51:00,
2013-09-09 14:06:00,82.2,60.0,29.71,ESE,122,14.0,17.0,47,0.00,,,0.00,weatherlink.com 1.10,2013-09-09 19:06:00,
2013-09-09 14:21:00,81.4,61.0,29.71,SSE,150,11.0,19.0,50,0.00,,,0.00,weatherlink.com 1.10,2013-09-09 19:21:00,
2013-09-09 14:36:00,82.1,59.0,29.70,ESE,111,9.0,13.0,45,0.00,,,0.00,weatherlink.com 1.10,2013-09-09 19:36:00,
2013-09-09 14:51:00,81.2,60.0,29.71,SSE,147,12.0,16.0,49,0.00,,,0.00,weatherlink.com 1.10,2013-09-09 19:51:00,
2013-09-09 15:06:00,82.2,58.0,29.71,SE,146,10.0,22.0,44,0.00,,,0.00,weatherlink.com 1.10,2013-09-09 20:06:00,
2013-09-09 15:21:00,82.4,60.0,29.70,ESE,102,13.0,23.0,46,0.00,,,0.00,weatherlink.com 1.10,2013-09-09 20:21:00,
2013-09-09 15:36:00,82.9,59.0,29.70,ENE,70,3.0,15.0,45,0.00,,,0.00,weatherlink.com 1.10,2013-09-09 20:36:00,
2013-09-09 15:51:00,78.0,60.0,29.70,NW,313,6.0,11.0,54,0.00,,,0.00,weatherlink.com 1.10,2013-09-09 20:51:00,
2013-09-09 16:06:00,75.0,61.0,29.71,NNW,331,1.0,8.0,62,0.00,,,0.00,weatherlink.com 1.10,2013-09-09 21:06:00,
2013-09-09 16:21:00,72.3,61.0,29.71,NW,312,1.0,8.0,67,0.00,,,0.00,weatherlink.com 1.10,2013-09-09 21:21:00,
2013-09-09 16:36:00,67.3,61.0,29.71,North,10,3.0,9.0,81,0.03,,,0.03,weatherlink.com 1.10,2013-09-09 21:36:00,
2013-09-09 16:51:00,65.5,62.0,29.71,ENE,61,2.0,12.0,87,0.18,,,0.18,weatherlink.com 1.10,2013-09-09 21:51:00,
2013-09-09 17:06:00,63.9,60.0,29.72,North,355,0.0,8.0,88,0.20,,,0.20,weatherlink.com 1.10,2013-09-09 22:06:00,
2013-09-09 17:21:00,63.6,61.0,29.72,NE,46,4.0,5.0,90,0.27,,,0.27,weatherlink.com 1.10,2013-09-09 22:21:00,
2013-09-09 17:36:00,65.1,62.0,29.73,NE,54,0.0,7.0,90,0.26,,,0.30,weatherlink.com 1.10,2013-09-09 22:36:00,
2013-09-09 17:51:00,65.6,62.0,29.74,North,355,0.0,4.0,89,0.14,,,0.32,weatherlink.com 1.10,2013-09-09 22:51:00,
2013-09-09 18:06:00,66.2,63.0,29.74,East,91,1.0,4.0,90,0.13,,,0.33,weatherlink.com 1.10,2013-09-09 23:06:00,
2013-09-09 18:21:00,66.4,63.0,29.74,East,88,0.0,2.0,89,0.07,,,0.34,weatherlink.com 1.10,2013-09-09 23:21:00,
2013-09-09 18:36:00,66.1,64.0,29.73,NW,317,1.0,3.0,91,0.05,,,0.35,weatherlink.com 1.10,2013-09-09 23:36:00,
2013-09-09 18:51:00,65.3,63.0,29.74,WNW,302,2.0,3.0,92,0.05,,,0.37,weatherlink.com 1.10,2013-09-09 23:51:00,
2013-09-09 19:06:00,64.2,62.0,29.74,West,281,0.0,2.0,92,0.04,,,0.37,weatherlink.com 1.10,2013-09-10 00:06:00,
2013-09-09 19:21:00,64.1,62.0,29.73,West,281,0.0,3.0,92,0.03,,,0.37,weatherlink.com 1.10,2013-09-10 00:21:00,
2013-09-09 19:36:00,64.0,62.0,29.74,West,281,0.0,2.0,93,0.03,,,0.38,weatherlink.com 1.10,2013-09-10 00:36:00,
2013-09-09 19:51:00,64.2,62.0,29.73,West,281,0.0,0.0,92,0.01,,,0.38,weatherlink.com 1.10,2013-09-10 00:51:00,
2013-09-09 20:06:00,64.6,62.0,29.72,West,281,0.0,0.0,91,0.01,,,0.38,weatherlink.com 1.10,2013-09-10 01:06:00,
2013-09-09 20:21:00,64.8,62.0,29.72,West,281,0.0,0.0,91,0.01,,,0.38,weatherlink.com 1.10,2013-09-10 01:21:00,
2013-09-09 20:36:00,65.0,62.0,29.72,West,281,0.0,0.0,91,0.00,,,0.38,weatherlink.com 1.10,2013-09-10 01:36:00,
2013-09-09 20:51:00,65.4,63.0,29.73,West,276,0.0,1.0,91,0.01,,,0.39,weatherlink.com 1.10,2013-09-10 01:51:00,
2013-09-09 21:06:00,67.5,63.0,29.73,ENE,74,4.0,13.0,84,0.01,,,0.39,weatherlink.com 1.10,2013-09-10 02:06:00,
2013-09-09 21:21:00,68.0,63.0,29.73,SSE,161,1.0,6.0,83,0.01,,,0.39,weatherlink.com 1.10,2013-09-10 02:21:00,
2013-09-09 21:36:00,68.2,62.0,29.74,ESE,112,0.0,9.0,81,0.01,,,0.39,weatherlink.com 1.10,2013-09-10 02:36:00,
2013-09-09 21:51:00,68.5,62.0,29.74,West,261,0.0,6.0,80,0.00,,,0.39,weatherlink.com 1.10,2013-09-10 02:51:00,
2013-09-09 22:06:00,69.0,61.0,29.74,ESE,115,9.0,14.0,76,0.00,,,0.39,weatherlink.com 1.10,2013-09-10 03:06:00,
2013-09-09 22:21:00,69.1,61.0,29.74,SSE,147,2.0,24.0,76,0.00,,,0.39,weatherlink.com 1.10,2013-09-10 03:21:00,
2013-09-09 22:36:00,69.4,62.0,29.74,SE,129,7.0,12.0,76,0.00,,,0.39,weatherlink.com 1.10,2013-09-10 03:36:00,
2013-09-09 22:51:00,69.4,62.0,29.75,ESE,119,7.0,13.0,76,0.00,,,0.39,weatherlink.com 1.10,2013-09-10 03:51:00,
2013-09-09 23:06:00,69.2,62.0,29.75,ESE,117,10.0,21.0,77,0.00,,,0.39,weatherlink.com 1.10,2013-09-10 04:06:00,
2013-09-09 23:21:00,69.4,62.0,29.75,ESE,123,7.0,19.0,77,0.00,,,0.39,weatherlink.com 1.10,2013-09-10 04:21:00,
2013-09-09 23:36:00,69.4,62.0,29.75,ESE,105,8.0,15.0,76,0.00,,,0.39,weatherlink.com 1.10,2013-09-10 04:36:00,
2013-09-09 23:51:00,69.8,61.0,29.75,SSE,147,4.0,11.0,73,0.00,,,0.39,weatherlink.com 1.10,2013-09-10 04:51:00,